Solon Springs, Wisconsin
Current Conditions -  °F | °C
As of 9:55 PM on Sunday 23 Nov 2014 (Local Time) from KOLG Reporting Station
Overcast Overcast  
Wind Chill: 31°   Ceiling: 500
Heat Index: 36°   Visibility: 3mi
Dew Point: 34°   Wind: 6mph
Humidity: 93%   Direction: 330°NNW
Pressure: 29.29"   Gusts: NA
Location:  46.35°N, 91.82°W
Report Text: KOLG 240355Z AUTO 33005KT 3SM OVC005 02/01 A2929 RMK AO1
Loading
Personal Weather Stations






























Interactive Weather Map New forecast layout! Learn more

10-Day Weather Forecast

Advertisements
Track Severe Weather on mobile